createdAt,value
2022-10-05T00:00:09.829Z,6.55
2022-10-05T00:00:45.992Z,6.18
2022-10-05T00:01:24.779Z,5.78
2022-10-05T00:01:57.601Z,5.53
2022-10-05T00:02:32.447Z,6.53
2022-10-05T00:03:10.429Z,6.43
2022-10-05T00:03:43.203Z,5.72
2022-10-05T00:04:16.779Z,6.10
2022-10-05T00:04:52.343Z,6.38
2022-10-05T00:05:30.198Z,5.80
2022-10-05T00:06:01.995Z,6.40
2022-10-05T00:06:33.800Z,5.50
2022-10-05T00:07:13.527Z,6.20
2022-10-05T00:07:45.389Z,6.32
2022-10-05T00:08:19.806Z,5.00
2022-10-05T00:08:52.546Z,5.00
2022-10-05T00:09:24.429Z,5.40
2022-10-05T00:09:58.728Z,6.47
2022-10-05T00:10:30.653Z,5.82
2022-10-05T00:11:03.415Z,6.28
2022-10-05T00:11:35.211Z,5.35
2022-10-05T00:12:14.498Z,5.88
2022-10-05T00:12:48.514Z,6.00
2022-10-05T00:13:23.100Z,5.22
2022-10-05T00:13:54.960Z,6.22
2022-10-05T00:14:30.473Z,5.68
2022-10-05T00:15:10.716Z,5.65
2022-10-05T00:15:43.963Z,5.35
2022-10-05T00:16:18.093Z,5.80
2022-10-05T00:16:50.462Z,5.55
2022-10-05T00:17:25.700Z,5.57
2022-10-05T00:17:58.328Z,5.65
2022-10-05T00:18:30.118Z,5.45
2022-10-05T00:19:20.310Z,5.32
2022-10-05T00:19:53.920Z,4.53
2022-10-05T00:20:26.522Z,5.55
2022-10-05T00:20:59.307Z,5.13
2022-10-05T00:21:33.786Z,5.55
2022-10-05T00:22:11.826Z,5.82
2022-10-05T00:22:44.604Z,5.72
2022-10-05T00:23:19.774Z,5.43
2022-10-05T00:23:53.265Z,6.00
2022-10-05T00:24:25.045Z,5.80
2022-10-05T00:24:59.557Z,5.80
2022-10-05T00:25:32.294Z,6.00
2022-10-05T00:26:11.891Z,6.40
2022-10-05T00:26:43.957Z,5.32
2022-10-05T00:27:21.761Z,5.40
2022-10-05T00:27:56.047Z,5.03
2022-10-05T00:28:30.537Z,5.25
2022-10-05T00:29:09.636Z,5.95
2022-10-05T00:29:41.401Z,5.38
2022-10-05T00:30:16.297Z,4.88
2022-10-05T00:30:49.124Z,5.43
2022-10-05T00:31:23.209Z,5.75
2022-10-05T00:31:55.112Z,4.80
2022-10-05T00:32:28.065Z,5.13
2022-10-05T00:33:00.137Z,5.65
2022-10-05T00:33:32.132Z,4.95
2022-10-05T00:34:04.933Z,5.72
2022-10-05T00:34:36.859Z,5.00
2022-10-05T00:35:09.318Z,5.05
2022-10-05T00:35:42.077Z,5.45
2022-10-05T00:36:14.394Z,4.95
2022-10-05T00:36:46.537Z,4.68
2022-10-05T00:37:19.549Z,4.68
2022-10-05T00:37:54.360Z,4.90
2022-10-05T00:38:28.448Z,4.88
2022-10-05T00:39:02.886Z,4.70
2022-10-05T00:39:38.365Z,5.10
2022-10-05T00:40:20.209Z,5.47
2022-10-05T00:41:06.728Z,5.15
2022-10-05T00:41:53.441Z,4.63
2022-10-05T00:42:41.290Z,4.60
2022-10-05T00:43:38.698Z,4.80
2022-10-05T00:44:27.221Z,4.82
2022-10-05T00:45:04.790Z,3.83
2022-10-05T00:45:40.171Z,4.43
2022-10-05T00:46:17.893Z,4.43
2022-10-05T00:46:56.481Z,3.75
2022-10-05T00:47:37.300Z,5.32
2022-10-05T00:48:20.560Z,4.00
2022-10-05T00:49:04.167Z,3.80
2022-10-05T00:49:57.438Z,4.32
2022-10-05T00:50:48.233Z,4.15
2022-10-05T00:51:25.618Z,4.25
2022-10-05T00:52:07.934Z,3.95
2022-10-05T00:52:47.329Z,3.78
2022-10-05T00:53:33.524Z,4.00
2022-10-05T00:54:23.451Z,4.15
2022-10-05T00:55:03.404Z,3.33
2022-10-05T00:55:47.582Z,3.90
2022-10-05T00:56:36.768Z,4.20
2022-10-05T00:57:25.406Z,4.20
2022-10-05T00:58:13.198Z,4.20
2022-10-05T00:58:55.665Z,4.65
2022-10-05T00:59:40.972Z,3.95
2022-10-05T01:00:17.689Z,4.05
2022-10-05T01:01:00.285Z,3.90
2022-10-05T01:01:36.995Z,4.72
2022-10-05T01:02:15.339Z,4.35
2022-10-05T01:02:58.014Z,4.25
2022-10-05T01:03:39.619Z,4.13
2022-10-05T01:04:21.529Z,3.78
2022-10-05T01:04:59.100Z,3.53
2022-10-05T01:05:47.953Z,3.20
2022-10-05T01:06:29.452Z,3.55
2022-10-05T01:07:09.969Z,3.10
2022-10-05T01:07:50.681Z,3.60
2022-10-05T01:08:33.078Z,3.28
2022-10-05T01:09:15.706Z,3.45
2022-10-05T01:09:56.813Z,3.83
2022-10-05T01:10:35.310Z,4.30
2022-10-05T01:11:13.691Z,3.30
2022-10-05T01:11:53.084Z,3.03
2022-10-05T01:12:35.133Z,3.45
2022-10-05T01:13:16.626Z,4.38
2022-10-05T01:13:57.501Z,3.17
2022-10-05T01:14:37.613Z,3.00
2022-10-05T01:15:15.543Z,2.80
2022-10-05T01:15:54.283Z,3.03
2022-10-05T01:16:31.956Z,3.08
2022-10-05T01:17:09.186Z,3.50
2022-10-05T01:17:48.046Z,3.40
2022-10-05T01:18:28.090Z,2.35
2022-10-05T01:19:12.518Z,2.70
2022-10-05T01:20:17.483Z,3.00
2022-10-05T01:20:57.654Z,2.78
2022-10-05T01:21:36.093Z,3.53
2022-10-05T01:22:20.373Z,2.38
2022-10-05T01:23:30.085Z,3.17
2022-10-05T01:24:29.363Z,2.60
2022-10-05T01:25:12.422Z,2.60
2022-10-05T01:25:57.093Z,2.95
2022-10-05T01:26:57.580Z,3.28
2022-10-05T01:27:42.201Z,2.63
2022-10-05T01:28:20.974Z,2.72
2022-10-05T01:28:57.222Z,2.63
2022-10-05T01:29:35.652Z,2.90
2022-10-05T01:30:13.365Z,3.28
2022-10-05T01:30:54.067Z,2.72
2022-10-05T01:31:34.712Z,2.90
2022-10-05T01:32:16.154Z,2.40
2022-10-05T01:32:53.368Z,2.50
2022-10-05T01:33:29.155Z,2.08
2022-10-05T01:34:11.611Z,2.83
2022-10-05T01:34:48.360Z,2.95
2022-10-05T01:35:34.464Z,1.95
2022-10-05T01:36:14.647Z,1.98
2022-10-05T01:36:54.847Z,2.60
2022-10-05T01:37:32.906Z,2.20
2022-10-05T01:38:18.074Z,2.03
2022-10-05T01:39:00.176Z,2.22
2022-10-05T01:39:39.174Z,2.28
2022-10-05T01:40:19.251Z,1.90
2022-10-05T01:40:59.926Z,2.28
2022-10-05T01:41:38.030Z,2.40
2022-10-05T01:42:21.409Z,2.50
2022-10-05T01:43:04.712Z,1.73
2022-10-05T01:43:41.826Z,2.20
2022-10-05T01:44:17.162Z,1.80
2022-10-05T01:44:55.467Z,2.42
2022-10-05T01:45:35.060Z,2.38
2022-10-05T01:46:15.199Z,2.55
2022-10-05T01:46:54.890Z,2.00
2022-10-05T01:47:38.368Z,2.05
2022-10-05T01:48:18.194Z,2.85
2022-10-05T01:49:02.405Z,2.28
2022-10-05T01:49:37.919Z,2.08
2022-10-05T01:50:17.500Z,2.20
2022-10-05T01:50:57.940Z,2.22
2022-10-05T01:51:37.864Z,2.20
2022-10-05T01:52:23.756Z,2.38
2022-10-05T01:53:04.764Z,2.47
2022-10-05T01:53:46.837Z,3.05
2022-10-05T01:54:38.296Z,2.35
2022-10-05T01:55:19.569Z,2.42
2022-10-05T01:55:59.859Z,2.30
2022-10-05T01:56:39.665Z,2.13
2022-10-05T01:57:24.836Z,2.85
2022-10-05T01:58:09.788Z,2.30
2022-10-05T01:58:52.688Z,1.90
2022-10-05T01:59:37.442Z,2.45
2022-10-05T02:00:11.871Z,2.10
2022-10-05T02:00:56.465Z,2.35
2022-10-05T02:01:36.754Z,2.20
2022-10-05T02:02:11.927Z,2.10
2022-10-05T02:02:49.125Z,2.30
2022-10-05T02:03:25.051Z,2.15
2022-10-05T02:04:02.958Z,2.00
2022-10-05T02:05:01.370Z,2.35
2022-10-05T02:05:39.049Z,2.15
2022-10-05T02:06:17.028Z,2.40
2022-10-05T02:06:50.608Z,2.03
2022-10-05T02:07:24.847Z,2.50
2022-10-05T02:08:01.323Z,2.83
2022-10-05T02:08:39.681Z,2.13
2022-10-05T02:09:15.544Z,1.90
2022-10-05T02:09:53.733Z,2.80
2022-10-05T02:10:30.948Z,2.05
2022-10-05T02:11:07.205Z,2.45
2022-10-05T02:11:40.897Z,2.60
2022-10-05T02:12:16.377Z,1.98
2022-10-05T02:12:54.093Z,2.40
2022-10-05T02:13:32.313Z,2.47
2022-10-05T02:14:09.604Z,2.58
2022-10-05T02:14:45.131Z,1.92
2022-10-05T02:15:22.633Z,2.25
2022-10-05T02:16:00.306Z,2.65
2022-10-05T02:16:38.317Z,2.10
2022-10-05T02:17:17.237Z,2.38
2022-10-05T02:17:50.977Z,2.20
2022-10-05T02:18:29.113Z,1.98
2022-10-05T02:19:05.633Z,3.80
2022-10-05T02:19:40.842Z,3.58
2022-10-05T02:20:21.052Z,8.95
2022-10-05T02:20:56.681Z,8.63
2022-10-05T02:21:31.141Z,6.22
2022-10-05T02:22:08.216Z,4.80
2022-10-05T02:22:45.595Z,9.30
2022-10-05T02:23:22.057Z,6.40
2022-10-05T02:23:58.506Z,5.55
2022-10-05T02:24:35.889Z,5.15
2022-10-05T02:25:11.152Z,3.90
2022-10-05T02:25:47.491Z,4.07
2022-10-05T02:26:20.117Z,3.25
2022-10-05T02:26:53.321Z,2.60
2022-10-05T02:27:30.753Z,2.20
2022-10-05T02:28:09.790Z,3.00
2022-10-05T02:28:48.480Z,2.80
2022-10-05T02:29:23.755Z,2.17
2022-10-05T02:30:01.426Z,1.92
2022-10-05T02:30:40.930Z,2.50
2022-10-05T02:31:16.401Z,1.88
2022-10-05T02:31:52.833Z,2.20
2022-10-05T02:32:28.234Z,1.92
2022-10-05T02:33:04.359Z,2.10
2022-10-05T02:33:38.058Z,1.95
2022-10-05T02:34:24.414Z,2.65
2022-10-05T02:35:01.278Z,2.25
2022-10-05T02:35:34.333Z,2.15
2022-10-05T02:36:14.185Z,2.03
2022-10-05T02:36:47.303Z,2.10
2022-10-05T02:37:28.306Z,1.52
2022-10-05T02:38:08.093Z,2.15
2022-10-05T02:38:55.287Z,2.42
2022-10-05T02:39:34.660Z,1.95
2022-10-05T02:40:15.021Z,1.58
2022-10-05T02:40:54.628Z,2.10
2022-10-05T02:41:37.181Z,2.47
2022-10-05T02:42:15.935Z,2.10
2022-10-05T02:42:56.862Z,1.80
2022-10-05T02:43:40.073Z,1.80
2022-10-05T02:44:27.086Z,2.10
2022-10-05T02:45:07.994Z,2.35
2022-10-05T02:45:48.268Z,1.80
2022-10-05T02:46:30.885Z,2.00
2022-10-05T02:47:12.120Z,1.80
2022-10-05T02:47:50.957Z,1.73
2022-10-05T02:48:32.926Z,2.00
2022-10-05T02:49:17.033Z,1.80
2022-10-05T02:49:58.226Z,2.03
2022-10-05T02:50:35.775Z,1.98
2022-10-05T02:51:18.525Z,1.90
2022-10-05T02:51:59.016Z,2.40
2022-10-05T02:52:41.010Z,1.90
2022-10-05T02:53:22.249Z,2.15
2022-10-05T02:54:05.299Z,1.90
2022-10-05T02:54:48.185Z,1.77
2022-10-05T02:55:29.521Z,2.20
2022-10-05T02:56:12.928Z,2.00
2022-10-05T02:56:51.646Z,1.92
2022-10-05T02:57:32.033Z,3.95
2022-10-05T02:58:08.584Z,2.63
2022-10-05T02:58:45.882Z,1.20
2022-10-05T02:59:24.568Z,2.30
2022-10-05T03:00:04.818Z,1.95
2022-10-05T03:00:42.740Z,14.20
2022-10-05T03:01:23.093Z,19.83
2022-10-05T03:02:00.413Z,43.95
2022-10-05T03:02:36.896Z,29.15
2022-10-05T03:03:13.167Z,19.90
2022-10-05T03:03:53.689Z,11.43
2022-10-05T03:04:36.594Z,13.05
2022-10-05T03:05:18.658Z,16.25
2022-10-05T03:05:55.544Z,20.83
2022-10-05T03:06:31.369Z,14.02
2022-10-05T03:07:12.118Z,10.40
2022-10-05T03:07:55.468Z,8.18
2022-10-05T03:08:33.996Z,3.58
2022-10-05T03:09:07.175Z,4.15
2022-10-05T03:09:44.650Z,4.72
2022-10-05T03:10:26.682Z,2.90
2022-10-05T03:11:09.266Z,2.30
2022-10-05T03:11:49.752Z,2.40
2022-10-05T03:12:36.922Z,2.20
2022-10-05T03:13:14.770Z,2.78
2022-10-05T03:13:53.931Z,1.80
2022-10-05T03:14:33.334Z,1.63
2022-10-05T03:15:20.471Z,1.77
2022-10-05T03:16:09.597Z,1.48
2022-10-05T03:16:52.723Z,1.73
2022-10-05T03:17:28.226Z,1.77
2022-10-05T03:18:10.679Z,2.03
2022-10-05T03:18:53.467Z,1.83
2022-10-05T03:19:38.133Z,2.50
2022-10-05T03:20:23.437Z,2.05
2022-10-05T03:21:05.998Z,1.90
2022-10-05T03:21:53.392Z,1.90
2022-10-05T03:22:38.465Z,1.98
2022-10-05T03:23:16.352Z,2.03
2022-10-05T03:24:02.538Z,1.90
2022-10-05T03:24:47.296Z,1.67
2022-10-05T03:25:40.993Z,1.80
2022-10-05T03:26:29.063Z,1.90
2022-10-05T03:27:08.322Z,2.33
2022-10-05T03:27:47.649Z,2.20
2022-10-05T03:28:25.887Z,2.58
2022-10-05T03:29:04.449Z,2.35
2022-10-05T03:29:45.118Z,1.77
2022-10-05T03:30:19.405Z,1.83
2022-10-05T03:30:59.580Z,2.05
2022-10-05T03:31:38.795Z,1.92
2022-10-05T03:32:22.225Z,1.83
2022-10-05T03:33:03.942Z,2.38
2022-10-05T03:33:44.316Z,1.75
2022-10-05T03:34:27.270Z,2.00
2022-10-05T03:35:06.738Z,1.75
2022-10-05T03:35:51.300Z,2.58
2022-10-05T03:36:30.981Z,1.95
2022-10-05T03:37:08.641Z,2.10
2022-10-05T03:37:49.488Z,2.63
2022-10-05T03:38:29.220Z,2.55
2022-10-05T03:39:05.401Z,1.67
2022-10-05T03:39:41.888Z,2.10
2022-10-05T03:40:27.095Z,1.70
2022-10-05T03:41:08.700Z,1.70
2022-10-05T03:41:45.944Z,2.20
2022-10-05T03:42:24.426Z,2.38
2022-10-05T03:43:12.197Z,2.00
2022-10-05T03:43:59.843Z,2.35
2022-10-05T03:44:44.385Z,1.77
2022-10-05T03:45:28.237Z,2.45
2022-10-05T03:46:08.649Z,1.80
2022-10-05T03:46:53.113Z,2.40
2022-10-05T03:47:34.531Z,1.73
2022-10-05T03:48:10.779Z,2.10
2022-10-05T03:48:52.461Z,2.40
2022-10-05T03:49:32.895Z,1.90
2022-10-05T03:50:28.545Z,2.08
2022-10-05T03:51:08.953Z,2.55
2022-10-05T03:51:44.609Z,2.25
2022-10-05T03:52:20.728Z,1.85
2022-10-05T03:52:58.986Z,2.40
2022-10-05T03:53:37.292Z,2.00
2022-10-05T03:54:18.609Z,2.92
2022-10-05T03:54:56.037Z,2.22
2022-10-05T03:55:33.977Z,1.85
2022-10-05T03:56:10.694Z,2.30
2022-10-05T03:56:49.759Z,2.42
2022-10-05T03:57:25.751Z,1.90
2022-10-05T03:58:03.881Z,1.80
2022-10-05T03:58:40.970Z,2.30
2022-10-05T03:59:16.948Z,2.65
2022-10-05T03:59:59.884Z,5.78
2022-10-05T04:00:33.322Z,13.32
2022-10-05T04:01:11.391Z,14.10
2022-10-05T04:01:49.443Z,20.63
2022-10-05T04:02:26.260Z,12.15
2022-10-05T04:03:03.135Z,7.85
2022-10-05T04:03:39.554Z,6.82
2022-10-05T04:04:23.838Z,5.30
2022-10-05T04:05:02.234Z,3.28
2022-10-05T04:05:38.119Z,3.45
2022-10-05T04:06:15.713Z,2.90
2022-10-05T04:06:49.232Z,2.13
2022-10-05T04:07:29.634Z,2.00
2022-10-05T04:08:07.898Z,1.98
2022-10-05T04:08:47.839Z,1.83
2022-10-05T04:09:24.336Z,1.85
2022-10-05T04:09:58.511Z,1.88
2022-10-05T04:10:39.659Z,1.80
2022-10-05T04:11:17.773Z,2.20
2022-10-05T04:11:56.997Z,1.70
2022-10-05T04:12:33.860Z,2.40
2022-10-05T04:13:13.367Z,2.05
2022-10-05T04:13:51.200Z,2.33
2022-10-05T04:14:28.218Z,2.30
2022-10-05T04:15:08.981Z,2.10
2022-10-05T04:15:47.145Z,1.63
2022-10-05T04:16:23.745Z,1.85
2022-10-05T04:17:02.513Z,2.00
2022-10-05T04:17:40.405Z,1.95
2022-10-05T04:18:23.494Z,1.90
2022-10-05T04:19:00.395Z,2.10
2022-10-05T04:19:36.607Z,1.98
2022-10-05T04:20:17.410Z,1.73
2022-10-05T04:20:54.549Z,2.15
2022-10-05T04:21:30.629Z,1.63
2022-10-05T04:22:12.037Z,2.95
2022-10-05T04:22:49.781Z,1.60
2022-10-05T04:23:33.550Z,2.00
2022-10-05T04:24:12.222Z,2.20
2022-10-05T04:24:49.304Z,1.70
2022-10-05T04:25:25.850Z,2.20
2022-10-05T04:26:06.174Z,1.80
2022-10-05T04:26:43.632Z,2.10
2022-10-05T04:27:17.857Z,2.13
2022-10-05T04:27:59.371Z,1.52
2022-10-05T04:28:44.884Z,2.20
2022-10-05T04:29:27.197Z,1.67
2022-10-05T04:30:08.005Z,1.70
2022-10-05T04:30:48.131Z,2.50
2022-10-05T04:31:35.237Z,2.22
2022-10-05T04:32:26.539Z,1.98
2022-10-05T04:33:00.618Z,2.75
2022-10-05T04:33:33.955Z,1.90
2022-10-05T04:34:16.073Z,2.20
2022-10-05T04:34:57.032Z,2.40
2022-10-05T04:35:58.401Z,1.65
2022-10-05T04:36:36.132Z,1.70
2022-10-05T04:37:16.756Z,1.95
2022-10-05T04:37:56.005Z,1.80
2022-10-05T04:38:41.121Z,2.50
2022-10-05T04:39:23.676Z,2.40
2022-10-05T04:40:05.862Z,1.90
2022-10-05T04:40:49.185Z,6.05
2022-10-05T04:42:01.591Z,4.45
2022-10-05T04:42:38.925Z,23.92
2022-10-05T04:43:18.614Z,17.67
2022-10-05T04:44:06.036Z,14.57
2022-10-05T04:44:59.335Z,7.82
2022-10-05T04:45:46.136Z,4.63
2022-10-05T04:46:31.145Z,4.30
2022-10-05T04:47:22.446Z,2.90
2022-10-05T04:48:19.554Z,2.28
2022-10-05T04:49:20.471Z,1.95
2022-10-05T04:50:07.726Z,1.80
2022-10-05T04:50:52.734Z,1.80
2022-10-05T04:51:36.181Z,1.80
2022-10-05T04:52:18.848Z,1.83
2022-10-05T04:53:00.133Z,1.58
2022-10-05T04:53:36.825Z,1.92
2022-10-05T04:54:20.589Z,1.80
2022-10-05T04:55:08.684Z,1.80
2022-10-05T04:55:50.692Z,2.40
2022-10-05T04:56:33.085Z,1.60
2022-10-05T04:57:11.833Z,1.95
2022-10-05T04:57:51.415Z,1.48
2022-10-05T04:58:42.105Z,2.20
2022-10-05T04:59:33.701Z,2.38
2022-10-05T05:00:16.769Z,3.00
2022-10-05T05:01:00.415Z,14.50
2022-10-05T05:01:53.337Z,22.58
2022-10-05T05:02:39.368Z,7.43
2022-10-05T05:03:33.392Z,9.10
2022-10-05T05:04:24.758Z,6.20
2022-10-05T05:05:17.697Z,3.70
2022-10-05T05:06:17.983Z,3.10
2022-10-05T05:07:01.336Z,2.40
2022-10-05T05:07:45.002Z,2.20
2022-10-05T05:08:31.907Z,2.80
2022-10-05T05:09:47.687Z,2.13
2022-10-05T05:10:44.601Z,2.40
2022-10-05T05:11:29.226Z,2.78
2022-10-05T05:12:20.489Z,1.70
2022-10-05T05:13:02.729Z,1.50
2022-10-05T05:14:06.754Z,2.00
2022-10-05T05:14:55.733Z,2.10
2022-10-05T05:15:41.811Z,1.90
2022-10-05T05:16:25.228Z,1.98
2022-10-05T05:17:13.956Z,1.80
2022-10-05T05:18:06.490Z,6.90
2022-10-05T05:19:09.453Z,11.77
2022-10-05T05:19:51.470Z,5.35
2022-10-05T05:20:32.605Z,3.47
2022-10-05T05:21:17.081Z,2.63
2022-10-05T05:21:57.640Z,2.47
2022-10-05T05:22:37.797Z,2.47
2022-10-05T05:23:19.155Z,2.63
2022-10-05T05:23:58.256Z,2.70
2022-10-05T05:24:41.798Z,2.10
2022-10-05T05:25:26.273Z,2.08
2022-10-05T05:26:06.423Z,2.20
2022-10-05T05:26:59.221Z,1.73
2022-10-05T05:27:40.989Z,2.00
2022-10-05T05:28:23.829Z,2.05
2022-10-05T05:29:07.469Z,2.15
2022-10-05T05:29:49.504Z,2.08
2022-10-05T05:30:23.458Z,2.10
2022-10-05T05:31:04.913Z,2.30
2022-10-05T05:31:46.518Z,2.50
2022-10-05T05:32:31.013Z,3.00
2022-10-05T05:33:14.494Z,2.13
2022-10-05T05:33:58.448Z,2.67
2022-10-05T05:34:42.372Z,3.60
2022-10-05T05:35:47.012Z,2.47
2022-10-05T05:36:40.354Z,2.50
2022-10-05T05:37:16.877Z,2.80
2022-10-05T05:37:54.634Z,2.17
2022-10-05T05:38:33.441Z,2.05
2022-10-05T05:39:23.526Z,2.78
2022-10-05T05:40:06.937Z,2.50
2022-10-05T05:40:47.474Z,2.15
2022-10-05T05:41:27.924Z,1.77
2022-10-05T05:42:02.568Z,2.40
2022-10-05T05:42:42.424Z,2.35
2022-10-05T05:43:25.857Z,1.90
2022-10-05T05:44:11.102Z,2.80
2022-10-05T05:44:49.239Z,2.17
2022-10-05T05:45:29.975Z,2.90
2022-10-05T05:46:10.649Z,2.53
2022-10-05T05:47:03.600Z,2.20
2022-10-05T05:47:40.217Z,3.28
2022-10-05T05:48:23.085Z,2.40
2022-10-05T05:48:57.433Z,2.00
2022-10-05T05:49:42.686Z,2.15
2022-10-05T05:50:38.468Z,2.70
2022-10-05T05:51:15.569Z,17.48
2022-10-05T05:51:54.304Z,8.25
2022-10-05T05:52:31.866Z,10.73
2022-10-05T05:53:11.207Z,5.68
2022-10-05T05:53:45.897Z,4.07
2022-10-05T05:54:27.379Z,4.35
2022-10-05T05:55:05.694Z,2.50
2022-10-05T05:55:42.154Z,3.90
2022-10-05T05:56:16.597Z,4.30
2022-10-05T05:56:53.621Z,4.15
2022-10-05T05:57:30.905Z,3.20
2022-10-05T05:58:06.653Z,3.58
2022-10-05T05:58:45.469Z,3.92
2022-10-05T05:59:22.455Z,3.47
2022-10-05T06:00:06.661Z,3.20
2022-10-05T06:00:44.805Z,3.80
2022-10-05T06:01:32.772Z,2.90
2022-10-05T06:02:11.585Z,2.60
2022-10-05T06:02:48.786Z,4.15
2022-10-05T06:03:26.553Z,4.13
2022-10-05T06:04:01.844Z,3.10
2022-10-05T06:04:38.301Z,3.80
2022-10-05T06:05:29.748Z,3.20
2022-10-05T06:06:04.927Z,3.10
2022-10-05T06:06:40.894Z,3.22
2022-10-05T06:07:17.383Z,3.25
2022-10-05T06:07:51.201Z,3.58
2022-10-05T06:08:29.829Z,2.88
2022-10-05T06:09:06.699Z,2.40
2022-10-05T06:09:44.454Z,2.83
2022-10-05T06:10:21.981Z,2.60
2022-10-05T06:10:58.541Z,2.72
2022-10-05T06:11:38.322Z,3.25
2022-10-05T06:12:15.053Z,2.28
2022-10-05T06:12:49.514Z,4.97
2022-10-05T06:13:26.061Z,4.68
2022-10-05T06:14:03.567Z,10.30
2022-10-05T06:14:40.376Z,9.38
2022-10-05T06:15:21.130Z,8.65
2022-10-05T06:15:57.064Z,4.20
2022-10-05T06:16:35.958Z,6.20
2022-10-05T06:17:15.867Z,3.60
2022-10-05T06:17:52.765Z,3.30
2022-10-05T06:18:26.460Z,2.65
2022-10-05T06:19:04.804Z,3.58
2022-10-05T06:19:38.072Z,2.70
2022-10-05T06:20:17.752Z,2.00
2022-10-05T06:20:55.837Z,2.95
2022-10-05T06:21:36.204Z,2.15
2022-10-05T06:22:16.002Z,2.67
2022-10-05T06:22:50.061Z,3.05
2022-10-05T06:23:29.271Z,3.05
2022-10-05T06:24:06.943Z,2.05
2022-10-05T06:24:49.165Z,3.45
2022-10-05T06:25:33.049Z,5.72
2022-10-05T06:26:13.661Z,8.38
2022-10-05T06:27:13.353Z,6.03
2022-10-05T06:28:01.555Z,3.58
2022-10-05T06:28:34.398Z,3.88
2022-10-05T06:29:11.558Z,2.72
2022-10-05T06:30:00.116Z,3.33
2022-10-05T06:30:43.203Z,2.80
2022-10-05T06:31:35.641Z,1.92
2022-10-05T06:32:18.381Z,1.88
2022-10-05T06:33:07.625Z,2.28
2022-10-05T06:33:46.988Z,1.90
2022-10-05T06:34:35.292Z,1.85
2022-10-05T06:35:18.872Z,1.70
2022-10-05T06:36:04.987Z,2.17
2022-10-05T06:36:44.032Z,1.63
2022-10-05T06:37:25.868Z,1.90
2022-10-05T06:38:10.288Z,1.80
2022-10-05T06:39:04.877Z,1.88
2022-10-05T06:39:58.703Z,2.47
2022-10-05T06:40:45.302Z,1.60
2022-10-05T06:41:25.155Z,2.35
2022-10-05T06:42:13.607Z,3.83
2022-10-05T06:43:03.425Z,2.53
2022-10-05T06:43:48.297Z,4.55
2022-10-05T06:44:27.446Z,4.40
2022-10-05T06:45:05.613Z,6.07
2022-10-05T06:45:54.341Z,9.25
2022-10-05T06:46:32.397Z,8.90
2022-10-05T06:47:13.354Z,6.82
2022-10-05T06:47:51.092Z,3.88
2022-10-05T06:48:32.635Z,3.25
2022-10-05T06:49:16.108Z,3.55
2022-10-05T06:49:57.618Z,3.70
2022-10-05T06:50:33.650Z,2.97
2022-10-05T06:51:15.444Z,2.10
2022-10-05T06:51:53.800Z,2.40
2022-10-05T06:52:33.533Z,2.13
2022-10-05T06:53:21.715Z,1.92
2022-10-05T06:54:03.896Z,2.38
2022-10-05T06:54:47.275Z,1.80
2022-10-05T06:55:25.403Z,2.20
2022-10-05T06:56:08.151Z,1.73
2022-10-05T06:56:46.418Z,2.20
2022-10-05T06:57:44.210Z,1.85
2022-10-05T06:58:33.477Z,2.20
2022-10-05T06:59:12.117Z,2.20
2022-10-05T06:59:53.926Z,3.25
2022-10-05T07:00:31.975Z,2.10
2022-10-05T07:01:10.883Z,2.10
2022-10-05T07:01:55.605Z,1.60
2022-10-05T07:02:39.509Z,2.05
2022-10-05T07:03:23.641Z,2.00
2022-10-05T07:04:09.773Z,2.03
2022-10-05T07:04:55.511Z,1.73
2022-10-05T07:05:47.960Z,1.50
2022-10-05T07:06:26.165Z,2.38
2022-10-05T07:07:01.173Z,2.88
2022-10-05T07:07:42.964Z,1.55
2022-10-05T07:08:20.277Z,1.80
2022-10-05T07:09:08.170Z,2.97
2022-10-05T07:09:48.970Z,2.05
2022-10-05T07:10:31.658Z,2.58
2022-10-05T07:11:12.654Z,1.98
2022-10-05T07:12:04.596Z,1.90
2022-10-05T07:12:53.068Z,1.80
2022-10-05T07:13:51.582Z,2.05
2022-10-05T07:14:38.693Z,1.88
2022-10-05T07:15:26.600Z,1.58
2022-10-05T07:16:09.067Z,1.90
2022-10-05T07:16:57.005Z,1.55
2022-10-05T07:17:45.412Z,1.25
2022-10-05T07:18:35.809Z,1.80
2022-10-05T07:19:17.565Z,1.80
2022-10-05T07:19:57.794Z,1.60
2022-10-05T07:20:33.538Z,1.98
2022-10-05T07:21:15.130Z,1.95
2022-10-05T07:21:59.683Z,1.90
2022-10-05T07:23:00.664Z,2.13
2022-10-05T07:23:51.925Z,1.70
2022-10-05T07:24:29.286Z,1.90
2022-10-05T07:25:09.961Z,1.75
2022-10-05T07:25:48.179Z,2.00
2022-10-05T07:26:28.569Z,1.63
2022-10-05T07:27:09.689Z,1.95
2022-10-05T07:27:51.075Z,2.05
2022-10-05T07:28:32.825Z,2.00
2022-10-05T07:29:23.235Z,2.20
2022-10-05T07:30:01.998Z,1.90
2022-10-05T07:30:44.832Z,1.77
2022-10-05T07:31:27.994Z,2.03
2022-10-05T07:32:09.689Z,2.08
2022-10-05T07:32:55.307Z,2.17
2022-10-05T07:33:36.863Z,2.38
2022-10-05T07:34:15.632Z,2.40
2022-10-05T07:35:03.957Z,2.70
2022-10-05T07:36:00.137Z,2.30
2022-10-05T07:36:58.452Z,2.25
2022-10-05T07:37:57.968Z,2.05
2022-10-05T07:38:35.543Z,1.88
2022-10-05T07:39:15.510Z,2.35
2022-10-05T07:40:00.609Z,2.00
2022-10-05T07:40:39.559Z,1.75
2022-10-05T07:41:19.211Z,2.00
2022-10-05T07:42:01.433Z,2.53
2022-10-05T07:42:50.631Z,2.17
2022-10-05T07:43:51.491Z,1.83
2022-10-05T07:44:30.864Z,1.60
2022-10-05T07:45:14.291Z,1.58
2022-10-05T07:45:51.586Z,2.20
2022-10-05T07:46:32.325Z,2.08
2022-10-05T07:47:10.261Z,1.80
2022-10-05T07:47:50.124Z,2.30
2022-10-05T07:48:29.023Z,2.92
2022-10-05T07:49:08.875Z,1.52
2022-10-05T07:49:48.181Z,3.78
2022-10-05T07:50:24.799Z,2.30
2022-10-05T07:51:00.246Z,3.28
2022-10-05T07:51:37.790Z,2.25
2022-10-05T07:52:14.921Z,1.90
2022-10-05T07:52:54.825Z,1.98
2022-10-05T07:53:32.094Z,1.83
2022-10-05T07:54:15.630Z,2.08
2022-10-05T07:54:57.685Z,2.13
2022-10-05T07:55:35.358Z,1.60
2022-10-05T07:56:14.744Z,2.85
2022-10-05T07:56:52.772Z,1.80
2022-10-05T07:57:31.376Z,2.15
2022-10-05T07:58:13.026Z,1.85
2022-10-05T07:58:48.869Z,1.98
2022-10-05T07:59:31.252Z,2.13
2022-10-05T08:00:07.329Z,1.73
2022-10-05T08:01:03.283Z,2.00
2022-10-05T08:01:37.377Z,2.00
2022-10-05T08:02:20.106Z,1.90
2022-10-05T08:02:56.267Z,1.70
2022-10-05T08:03:41.543Z,2.20
2022-10-05T08:04:20.008Z,2.10
2022-10-05T08:04:58.102Z,2.00
2022-10-05T08:05:32.521Z,1.90
2022-10-05T08:06:06.220Z,1.70
2022-10-05T08:06:48.902Z,1.70
2022-10-05T08:07:21.353Z,2.90
2022-10-05T08:08:00.328Z,2.22
2022-10-05T08:08:43.020Z,2.67
2022-10-05T08:09:30.142Z,1.85
2022-10-05T08:10:15.398Z,2.58
2022-10-05T08:10:55.067Z,1.65
2022-10-05T08:11:32.543Z,1.98
2022-10-05T08:12:15.758Z,1.85
2022-10-05T08:13:07.707Z,2.45
2022-10-05T08:13:48.186Z,1.70
2022-10-05T08:14:28.805Z,1.40
2022-10-05T08:15:06.739Z,1.95
2022-10-05T08:15:42.876Z,1.77
2022-10-05T08:16:16.637Z,1.60
2022-10-05T08:16:52.152Z,2.03
2022-10-05T08:17:34.803Z,1.60
2022-10-05T08:18:14.356Z,1.55
2022-10-05T08:18:55.608Z,4.10
2022-10-05T08:19:34.530Z,2.63
2022-10-05T08:20:28.586Z,1.60
2022-10-05T08:21:00.909Z,1.52
2022-10-05T08:21:38.150Z,1.95
2022-10-05T08:22:18.359Z,1.63
2022-10-05T08:22:55.797Z,1.40
2022-10-05T08:23:36.319Z,1.58
2022-10-05T08:24:18.938Z,1.27
2022-10-05T08:24:57.645Z,1.50
2022-10-05T08:25:41.134Z,1.70
2022-10-05T08:26:22.562Z,1.40
2022-10-05T08:27:02.187Z,1.30
2022-10-05T08:27:52.174Z,1.50
2022-10-05T08:28:28.854Z,1.30
2022-10-05T08:29:14.017Z,1.13
2022-10-05T08:29:56.105Z,1.30
2022-10-05T08:30:32.167Z,1.10
2022-10-05T08:31:14.492Z,1.10
2022-10-05T08:31:49.918Z,1.70
2022-10-05T08:32:25.670Z,1.50
2022-10-05T08:33:08.319Z,1.60
2022-10-05T08:33:50.730Z,1.40
2022-10-05T08:34:28.382Z,1.52
2022-10-05T08:35:11.161Z,1.70
2022-10-05T08:35:47.012Z,1.35
2022-10-05T08:36:24.137Z,1.50
2022-10-05T08:37:02.810Z,1.33
2022-10-05T08:37:40.517Z,1.35
2022-10-05T08:38:16.742Z,1.02
2022-10-05T08:38:54.571Z,1.70
2022-10-05T08:39:31.534Z,1.30
2022-10-05T08:40:39.187Z,1.75
2022-10-05T08:41:40.087Z,1.88
2022-10-05T08:42:47.157Z,1.70
2022-10-05T08:43:37.227Z,1.23
2022-10-05T08:44:40.394Z,1.75
2022-10-05T08:45:47.552Z,1.70
2022-10-05T08:46:35.454Z,1.85
2022-10-05T08:47:22.438Z,1.75
2022-10-05T08:48:17.925Z,1.23
2022-10-05T08:49:04.353Z,1.05
2022-10-05T08:49:55.594Z,1.50
2022-10-05T08:50:59.669Z,1.40
2022-10-05T08:52:05.770Z,1.15
2022-10-05T08:53:00.294Z,1.25
2022-10-05T08:53:53.929Z,1.30
2022-10-05T08:54:52.505Z,1.73
2022-10-05T08:55:43.517Z,1.17
2022-10-05T08:56:33.455Z,1.40
2022-10-05T08:57:46.432Z,1.40
2022-10-05T08:58:43.336Z,1.15
2022-10-05T08:59:43.103Z,1.85
2022-10-05T09:00:19.642Z,1.23
2022-10-05T09:00:57.834Z,1.10
2022-10-05T09:01:43.037Z,1.02
2022-10-05T09:02:23.138Z,1.15
2022-10-05T09:03:20.124Z,1.13
2022-10-05T09:04:16.779Z,1.30
2022-10-05T09:05:10.326Z,1.20
2022-10-05T09:06:06.025Z,1.05
2022-10-05T09:06:59.652Z,1.60
2022-10-05T09:07:56.661Z,1.45
2022-10-05T09:08:54.825Z,1.00
2022-10-05T09:10:02.191Z,1.75
2022-10-05T09:11:03.687Z,1.20
2022-10-05T09:11:37.476Z,0.95